sensor_id;sensor_type;location;lat;lon;timestamp;P1;durP1;ratioP1;P2;durP2;ratioP2
38465;SDS011;24244;51.950;5.902;2023-05-07T00:01:13;4.43;;;2.75;;
38465;SDS011;24244;51.950;5.902;2023-05-07T00:03:41;6.07;;;3.22;;
38465;SDS011;24244;51.950;5.902;2023-05-07T00:06:08;4.78;;;3.45;;
38465;SDS011;24244;51.950;5.902;2023-05-07T00:08:36;4.85;;;2.90;;
38465;SDS011;24244;51.950;5.902;2023-05-07T00:11:04;4.78;;;3.17;;
38465;SDS011;24244;51.950;5.902;2023-05-07T00:13:31;4.07;;;2.88;;
38465;SDS011;24244;51.950;5.902;2023-05-07T00:16:01;5.88;;;3.30;;
38465;SDS011;24244;51.950;5.902;2023-05-07T00:18:28;3.83;;;2.83;;
38465;SDS011;24244;51.950;5.902;2023-05-07T00:20:57;5.07;;;3.65;;
38465;SDS011;24244;51.950;5.902;2023-05-07T00:23:24;5.93;;;3.30;;
38465;SDS011;24244;51.950;5.902;2023-05-07T00:25:51;6.15;;;2.80;;
38465;SDS011;24244;51.950;5.902;2023-05-07T00:28:17;4.40;;;3.13;;
38465;SDS011;24244;51.950;5.902;2023-05-07T00:30:44;4.75;;;3.28;;
38465;SDS011;24244;51.950;5.902;2023-05-07T00:33:11;4.97;;;3.15;;
38465;SDS011;24244;51.950;5.902;2023-05-07T00:35:38;4.03;;;3.03;;
38465;SDS011;24244;51.950;5.902;2023-05-07T00:38:06;4.07;;;3.30;;
38465;SDS011;24244;51.950;5.902;2023-05-07T00:40:33;5.18;;;3.40;;
38465;SDS011;24244;51.950;5.902;2023-05-07T00:43:00;5.82;;;3.85;;
38465;SDS011;24244;51.950;5.902;2023-05-07T00:45:27;3.83;;;3.13;;
38465;SDS011;24244;51.950;5.902;2023-05-07T00:47:55;4.82;;;3.20;;
38465;SDS011;24244;51.950;5.902;2023-05-07T00:50:23;5.18;;;3.30;;
38465;SDS011;24244;51.950;5.902;2023-05-07T00:52:54;4.93;;;3.13;;
38465;SDS011;24244;51.950;5.902;2023-05-07T00:55:23;4.93;;;3.33;;
38465;SDS011;24244;51.950;5.902;2023-05-07T00:57:50;4.35;;;3.15;;
38465;SDS011;24244;51.950;5.902;2023-05-07T01:00:17;4.15;;;3.13;;
38465;SDS011;24244;51.950;5.902;2023-05-07T01:02:44;7.22;;;4.25;;
38465;SDS011;24244;51.950;5.902;2023-05-07T01:05:14;4.55;;;3.45;;
38465;SDS011;24244;51.950;5.902;2023-05-07T01:07:43;4.90;;;4.10;;
38465;SDS011;24244;51.950;5.902;2023-05-07T01:10:11;6.38;;;3.25;;
38465;SDS011;24244;51.950;5.902;2023-05-07T01:12:40;4.40;;;3.88;;
38465;SDS011;24244;51.950;5.902;2023-05-07T01:15:09;5.03;;;3.35;;
38465;SDS011;24244;51.950;5.902;2023-05-07T01:17:36;5.65;;;3.88;;
38465;SDS011;24244;51.950;5.902;2023-05-07T01:20:04;5.07;;;3.35;;
38465;SDS011;24244;51.950;5.902;2023-05-07T01:22:35;5.32;;;3.85;;
38465;SDS011;24244;51.950;5.902;2023-05-07T01:25:03;5.45;;;3.38;;
38465;SDS011;24244;51.950;5.902;2023-05-07T01:27:30;4.72;;;3.63;;
38465;SDS011;24244;51.950;5.902;2023-05-07T01:29:59;6.10;;;4.40;;
38465;SDS011;24244;51.950;5.902;2023-05-07T01:32:27;5.50;;;3.55;;
38465;SDS011;24244;51.950;5.902;2023-05-07T01:34:58;5.93;;;3.88;;
38465;SDS011;24244;51.950;5.902;2023-05-07T01:37:26;5.72;;;3.80;;
38465;SDS011;24244;51.950;5.902;2023-05-07T01:39:55;5.13;;;3.85;;
38465;SDS011;24244;51.950;5.902;2023-05-07T01:42:23;5.43;;;4.32;;
38465;SDS011;24244;51.950;5.902;2023-05-07T01:44:50;6.30;;;4.05;;
38465;SDS011;24244;51.950;5.902;2023-05-07T01:47:17;7.72;;;4.68;;
38465;SDS011;24244;51.950;5.902;2023-05-07T01:49:45;5.03;;;3.80;;
38465;SDS011;24244;51.950;5.902;2023-05-07T01:52:12;5.68;;;3.97;;
38465;SDS011;24244;51.950;5.902;2023-05-07T01:54:39;5.80;;;4.13;;
38465;SDS011;24244;51.950;5.902;2023-05-07T01:57:07;6.45;;;4.82;;
38465;SDS011;24244;51.950;5.902;2023-05-07T01:59:34;6.20;;;4.88;;
38465;SDS011;24244;51.950;5.902;2023-05-07T02:02:01;6.38;;;4.70;;
38465;SDS011;24244;51.950;5.902;2023-05-07T02:04:28;5.80;;;4.22;;
38465;SDS011;24244;51.950;5.902;2023-05-07T02:06:55;5.60;;;4.32;;
38465;SDS011;24244;51.950;5.902;2023-05-07T02:09:22;6.68;;;4.60;;
38465;SDS011;24244;51.950;5.902;2023-05-07T02:11:49;6.95;;;4.35;;
38465;SDS011;24244;51.950;5.902;2023-05-07T02:14:17;6.95;;;5.72;;
38465;SDS011;24244;51.950;5.902;2023-05-07T02:16:44;6.00;;;5.13;;
38465;SDS011;24244;51.950;5.902;2023-05-07T02:19:11;6.75;;;4.85;;
38465;SDS011;24244;51.950;5.902;2023-05-07T02:21:38;6.40;;;4.40;;
38465;SDS011;24244;51.950;5.902;2023-05-07T02:24:05;6.43;;;4.88;;
38465;SDS011;24244;51.950;5.902;2023-05-07T02:26:31;7.43;;;4.93;;
38465;SDS011;24244;51.950;5.902;2023-05-07T02:28:58;8.15;;;5.28;;
38465;SDS011;24244;51.950;5.902;2023-05-07T02:31:26;6.50;;;4.82;;
38465;SDS011;24244;51.950;5.902;2023-05-07T02:33:53;7.28;;;5.30;;
38465;SDS011;24244;51.950;5.902;2023-05-07T02:36:20;7.10;;;5.30;;
38465;SDS011;24244;51.950;5.902;2023-05-07T02:38:47;8.48;;;5.60;;
38465;SDS011;24244;51.950;5.902;2023-05-07T02:41:13;7.63;;;5.50;;
38465;SDS011;24244;51.950;5.902;2023-05-07T02:43:40;8.07;;;6.13;;
38465;SDS011;24244;51.950;5.902;2023-05-07T02:46:07;8.23;;;5.60;;
38465;SDS011;24244;51.950;5.902;2023-05-07T02:48:36;6.70;;;4.65;;
38465;SDS011;24244;51.950;5.902;2023-05-07T02:51:03;7.50;;;5.60;;
38465;SDS011;24244;51.950;5.902;2023-05-07T02:53:31;7.53;;;6.35;;
38465;SDS011;24244;51.950;5.902;2023-05-07T02:55:59;7.75;;;5.63;;
38465;SDS011;24244;51.950;5.902;2023-05-07T02:58:27;7.18;;;5.57;;
38465;SDS011;24244;51.950;5.902;2023-05-07T03:00:54;7.57;;;5.53;;
38465;SDS011;24244;51.950;5.902;2023-05-07T03:03:21;9.45;;;5.60;;
38465;SDS011;24244;51.950;5.902;2023-05-07T03:05:49;8.23;;;5.60;;
38465;SDS011;24244;51.950;5.902;2023-05-07T03:08:16;8.00;;;6.38;;
38465;SDS011;24244;51.950;5.902;2023-05-07T03:10:43;8.27;;;6.82;;
38465;SDS011;24244;51.950;5.902;2023-05-07T03:13:10;6.95;;;5.10;;
38465;SDS011;24244;51.950;5.902;2023-05-07T03:15:36;7.50;;;5.22;;
38465;SDS011;24244;51.950;5.902;2023-05-07T03:18:03;6.90;;;4.80;;
38465;SDS011;24244;51.950;5.902;2023-05-07T03:20:33;7.53;;;5.63;;
38465;SDS011;24244;51.950;5.902;2023-05-07T03:23:01;8.82;;;6.05;;
38465;SDS011;24244;51.950;5.902;2023-05-07T03:25:28;7.15;;;4.93;;
38465;SDS011;24244;51.950;5.902;2023-05-07T03:27:58;8.52;;;5.72;;
38465;SDS011;24244;51.950;5.902;2023-05-07T03:30:25;8.50;;;4.88;;
38465;SDS011;24244;51.950;5.902;2023-05-07T03:32:51;6.95;;;5.07;;
38465;SDS011;24244;51.950;5.902;2023-05-07T03:35:18;8.25;;;5.22;;
38465;SDS011;24244;51.950;5.902;2023-05-07T03:37:46;7.78;;;6.13;;
38465;SDS011;24244;51.950;5.902;2023-05-07T03:40:14;6.70;;;4.65;;
38465;SDS011;24244;51.950;5.902;2023-05-07T03:42:41;6.93;;;5.13;;
38465;SDS011;24244;51.950;5.902;2023-05-07T03:45:08;6.53;;;4.78;;
38465;SDS011;24244;51.950;5.902;2023-05-07T03:47:35;8.80;;;5.47;;
38465;SDS011;24244;51.950;5.902;2023-05-07T03:50:02;9.70;;;5.43;;
38465;SDS011;24244;51.950;5.902;2023-05-07T03:52:29;9.07;;;5.60;;
38465;SDS011;24244;51.950;5.902;2023-05-07T03:54:56;7.22;;;5.47;;
38465;SDS011;24244;51.950;5.902;2023-05-07T03:57:24;7.40;;;5.72;;
38465;SDS011;24244;51.950;5.902;2023-05-07T03:59:51;7.47;;;6.10;;
38465;SDS011;24244;51.950;5.902;2023-05-07T04:02:18;7.93;;;5.25;;
38465;SDS011;24244;51.950;5.902;2023-05-07T04:04:45;9.35;;;6.35;;
38465;SDS011;24244;51.950;5.902;2023-05-07T04:07:12;7.72;;;5.78;;
38465;SDS011;24244;51.950;5.902;2023-05-07T04:09:39;7.93;;;6.10;;
38465;SDS011;24244;51.950;5.902;2023-05-07T04:12:06;7.47;;;5.50;;
38465;SDS011;24244;51.950;5.902;2023-05-07T04:14:34;8.73;;;5.43;;
38465;SDS011;24244;51.950;5.902;2023-05-07T04:17:01;8.05;;;5.88;;
38465;SDS011;24244;51.950;5.902;2023-05-07T04:19:29;8.23;;;4.93;;
38465;SDS011;24244;51.950;5.902;2023-05-07T04:21:55;6.90;;;5.15;;
38465;SDS011;24244;51.950;5.902;2023-05-07T04:24:22;7.30;;;4.55;;
38465;SDS011;24244;51.950;5.902;2023-05-07T04:26:49;7.20;;;4.70;;
38465;SDS011;24244;51.950;5.902;2023-05-07T04:29:17;7.28;;;4.85;;
38465;SDS011;24244;51.950;5.902;2023-05-07T04:31:45;8.52;;;5.18;;
38465;SDS011;24244;51.950;5.902;2023-05-07T04:34:12;8.07;;;5.93;;
38465;SDS011;24244;51.950;5.902;2023-05-07T04:36:39;8.23;;;5.13;;
38465;SDS011;24244;51.950;5.902;2023-05-07T04:39:06;6.72;;;5.43;;
38465;SDS011;24244;51.950;5.902;2023-05-07T04:41:33;7.18;;;5.50;;
38465;SDS011;24244;51.950;5.902;2023-05-07T04:44:03;7.32;;;4.93;;
38465;SDS011;24244;51.950;5.902;2023-05-07T04:46:30;8.27;;;4.78;;
38465;SDS011;24244;51.950;5.902;2023-05-07T04:48:58;7.38;;;5.47;;
38465;SDS011;24244;51.950;5.902;2023-05-07T04:51:25;7.50;;;5.55;;
38465;SDS011;24244;51.950;5.902;2023-05-07T04:53:52;7.63;;;5.53;;
38465;SDS011;24244;51.950;5.902;2023-05-07T04:56:19;8.20;;;5.43;;
38465;SDS011;24244;51.950;5.902;2023-05-07T04:58:46;7.68;;;5.20;;
38465;SDS011;24244;51.950;5.902;2023-05-07T05:01:13;7.57;;;6.32;;
38465;SDS011;24244;51.950;5.902;2023-05-07T05:03:40;7.85;;;6.18;;
38465;SDS011;24244;51.950;5.902;2023-05-07T05:06:08;7.35;;;6.40;;
38465;SDS011;24244;51.950;5.902;2023-05-07T05:08:36;8.38;;;5.10;;
38465;SDS011;24244;51.950;5.902;2023-05-07T05:11:03;8.75;;;5.75;;
38465;SDS011;24244;51.950;5.902;2023-05-07T05:13:29;7.70;;;5.55;;
38465;SDS011;24244;51.950;5.902;2023-05-07T05:15:56;6.93;;;4.70;;
38465;SDS011;24244;51.950;5.902;2023-05-07T05:18:24;7.38;;;5.13;;
38465;SDS011;24244;51.950;5.902;2023-05-07T05:20:51;8.05;;;5.70;;
38465;SDS011;24244;51.950;5.902;2023-05-07T05:23:19;7.65;;;5.65;;
38465;SDS011;24244;51.950;5.902;2023-05-07T05:25:46;8.25;;;5.43;;
38465;SDS011;24244;51.950;5.902;2023-05-07T05:28:13;6.20;;;4.68;;
38465;SDS011;24244;51.950;5.902;2023-05-07T05:30:39;8.50;;;5.75;;
38465;SDS011;24244;51.950;5.902;2023-05-07T05:33:06;7.82;;;5.20;;
38465;SDS011;24244;51.950;5.902;2023-05-07T05:35:33;8.55;;;5.95;;
38465;SDS011;24244;51.950;5.902;2023-05-07T05:38:01;7.53;;;6.68;;
38465;SDS011;24244;51.950;5.902;2023-05-07T05:40:29;7.20;;;5.75;;
38465;SDS011;24244;51.950;5.902;2023-05-07T05:42:56;6.85;;;5.25;;
38465;SDS011;24244;51.950;5.902;2023-05-07T05:45:23;10.50;;;6.18;;
38465;SDS011;24244;51.950;5.902;2023-05-07T05:47:51;9.00;;;6.20;;
38465;SDS011;24244;51.950;5.902;2023-05-07T05:50:18;7.88;;;5.45;;
38465;SDS011;24244;51.950;5.902;2023-05-07T05:52:45;6.97;;;4.97;;
38465;SDS011;24244;51.950;5.902;2023-05-07T05:55:12;8.48;;;5.85;;
38465;SDS011;24244;51.950;5.902;2023-05-07T05:57:40;8.18;;;5.60;;
38465;SDS011;24244;51.950;5.902;2023-05-07T06:00:07;6.40;;;5.45;;
38465;SDS011;24244;51.950;5.902;2023-05-07T06:02:35;7.40;;;5.57;;
38465;SDS011;24244;51.950;5.902;2023-05-07T06:05:02;7.13;;;5.32;;
38465;SDS011;24244;51.950;5.902;2023-05-07T06:07:30;6.93;;;5.05;;
38465;SDS011;24244;51.950;5.902;2023-05-07T06:09:56;8.95;;;6.47;;
38465;SDS011;24244;51.950;5.902;2023-05-07T06:12:23;8.68;;;5.90;;
38465;SDS011;24244;51.950;5.902;2023-05-07T06:14:51;9.80;;;5.80;;
38465;SDS011;24244;51.950;5.902;2023-05-07T06:17:18;7.55;;;5.82;;
38465;SDS011;24244;51.950;5.902;2023-05-07T06:19:47;8.68;;;6.15;;
38465;SDS011;24244;51.950;5.902;2023-05-07T06:22:14;7.85;;;6.20;;
38465;SDS011;24244;51.950;5.902;2023-05-07T06:24:41;8.85;;;5.55;;
38465;SDS011;24244;51.950;5.902;2023-05-07T06:27:08;7.95;;;5.32;;
38465;SDS011;24244;51.950;5.902;2023-05-07T06:29:35;8.45;;;5.97;;
38465;SDS011;24244;51.950;5.902;2023-05-07T06:32:10;8.27;;;4.93;;
38465;SDS011;24244;51.950;5.902;2023-05-07T06:34:37;6.93;;;5.07;;
38465;SDS011;24244;51.950;5.902;2023-05-07T06:37:05;8.02;;;4.70;;
38465;SDS011;24244;51.950;5.902;2023-05-07T06:39:32;7.50;;;5.38;;
38465;SDS011;24244;51.950;5.902;2023-05-07T06:41:59;7.80;;;5.20;;
38465;SDS011;24244;51.950;5.902;2023-05-07T06:44:26;7.38;;;4.97;;
38465;SDS011;24244;51.950;5.902;2023-05-07T06:46:53;11.48;;;6.32;;
38465;SDS011;24244;51.950;5.902;2023-05-07T06:49:21;7.35;;;5.32;;
38465;SDS011;24244;51.950;5.902;2023-05-07T06:51:48;8.43;;;4.93;;
38465;SDS011;24244;51.950;5.902;2023-05-07T06:54:15;9.13;;;6.07;;
38465;SDS011;24244;51.950;5.902;2023-05-07T06:56:42;9.93;;;5.88;;
38465;SDS011;24244;51.950;5.902;2023-05-07T06:59:09;8.82;;;6.38;;
38465;SDS011;24244;51.950;5.902;2023-05-07T07:01:36;8.57;;;6.28;;
38465;SDS011;24244;51.950;5.902;2023-05-07T07:04:03;9.10;;;7.28;;
38465;SDS011;24244;51.950;5.902;2023-05-07T07:06:31;10.02;;;6.70;;
38465;SDS011;24244;51.950;5.902;2023-05-07T07:08:59;11.50;;;7.25;;
38465;SDS011;24244;51.950;5.902;2023-05-07T07:11:26;9.23;;;6.70;;
38465;SDS011;24244;51.950;5.902;2023-05-07T07:13:53;10.60;;;7.28;;
38465;SDS011;24244;51.950;5.902;2023-05-07T07:16:22;9.52;;;7.50;;
38465;SDS011;24244;51.950;5.902;2023-05-07T07:18:48;9.85;;;7.53;;
38465;SDS011;24244;51.950;5.902;2023-05-07T07:21:15;10.77;;;7.22;;
38465;SDS011;24244;51.950;5.902;2023-05-07T07:23:44;10.65;;;7.57;;
38465;SDS011;24244;51.950;5.902;2023-05-07T07:26:11;10.93;;;7.25;;
38465;SDS011;24244;51.950;5.902;2023-05-07T07:28:42;10.95;;;7.43;;
38465;SDS011;24244;51.950;5.902;2023-05-07T07:31:11;11.32;;;7.05;;
38465;SDS011;24244;51.950;5.902;2023-05-07T07:33:38;10.85;;;8.10;;
38465;SDS011;24244;51.950;5.902;2023-05-07T07:36:05;9.27;;;6.60;;
38465;SDS011;24244;51.950;5.902;2023-05-07T07:38:33;10.98;;;7.13;;
38465;SDS011;24244;51.950;5.902;2023-05-07T07:41:02;10.88;;;7.40;;
38465;SDS011;24244;51.950;5.902;2023-05-07T07:43:30;11.93;;;7.97;;
38465;SDS011;24244;51.950;5.902;2023-05-07T07:45:57;9.45;;;6.75;;
38465;SDS011;24244;51.950;5.902;2023-05-07T07:48:24;12.85;;;6.30;;
38465;SDS011;24244;51.950;5.902;2023-05-07T07:50:51;9.80;;;7.35;;
38465;SDS011;24244;51.950;5.902;2023-05-07T07:53:19;8.98;;;6.68;;
38465;SDS011;24244;51.950;5.902;2023-05-07T07:55:46;10.50;;;7.78;;
38465;SDS011;24244;51.950;5.902;2023-05-07T07:58:14;9.77;;;7.10;;
38465;SDS011;24244;51.950;5.902;2023-05-07T08:00:42;11.95;;;7.65;;
38465;SDS011;24244;51.950;5.902;2023-05-07T08:03:09;10.32;;;7.40;;
38465;SDS011;24244;51.950;5.902;2023-05-07T08:05:36;10.40;;;7.90;;
38465;SDS011;24244;51.950;5.902;2023-05-07T08:08:05;10.13;;;7.25;;
38465;SDS011;24244;51.950;5.902;2023-05-07T08:10:32;11.13;;;6.90;;
38465;SDS011;24244;51.950;5.902;2023-05-07T08:13:01;12.23;;;9.15;;
38465;SDS011;24244;51.950;5.902;2023-05-07T08:15:31;12.13;;;8.43;;
38465;SDS011;24244;51.950;5.902;2023-05-07T08:17:58;11.70;;;7.38;;
38465;SDS011;24244;51.950;5.902;2023-05-07T08:20:26;11.55;;;7.72;;
38465;SDS011;24244;51.950;5.902;2023-05-07T08:22:54;10.85;;;8.50;;
38465;SDS011;24244;51.950;5.902;2023-05-07T08:25:21;12.60;;;7.47;;
38465;SDS011;24244;51.950;5.902;2023-05-07T08:27:48;10.85;;;7.57;;
38465;SDS011;24244;51.950;5.902;2023-05-07T08:30:15;13.02;;;7.50;;
38465;SDS011;24244;51.950;5.902;2023-05-07T08:32:43;10.35;;;7.40;;
38465;SDS011;24244;51.950;5.902;2023-05-07T08:35:10;11.70;;;7.78;;
38465;SDS011;24244;51.950;5.902;2023-05-07T08:37:37;11.43;;;8.00;;
38465;SDS011;24244;51.950;5.902;2023-05-07T08:40:04;11.98;;;8.00;;
38465;SDS011;24244;51.950;5.902;2023-05-07T08:42:35;12.55;;;7.82;;
38465;SDS011;24244;51.950;5.902;2023-05-07T08:45:06;11.27;;;8.73;;
38465;SDS011;24244;51.950;5.902;2023-05-07T08:47:39;11.38;;;7.78;;
38465;SDS011;24244;51.950;5.902;2023-05-07T08:50:10;12.68;;;9.48;;
38465;SDS011;24244;51.950;5.902;2023-05-07T08:52:38;11.70;;;7.78;;
38465;SDS011;24244;51.950;5.902;2023-05-07T08:55:06;12.70;;;8.75;;
38465;SDS011;24244;51.950;5.902;2023-05-07T08:57:33;13.55;;;9.25;;
38465;SDS011;24244;51.950;5.902;2023-05-07T09:00:00;12.20;;;8.82;;
38465;SDS011;24244;51.950;5.902;2023-05-07T09:02:27;11.95;;;8.60;;
38465;SDS011;24244;51.950;5.902;2023-05-07T09:04:54;11.75;;;7.72;;
38465;SDS011;24244;51.950;5.902;2023-05-07T09:07:22;12.07;;;7.40;;
38465;SDS011;24244;51.950;5.902;2023-05-07T09:09:51;12.50;;;7.78;;
38465;SDS011;24244;51.950;5.902;2023-05-07T09:12:18;12.73;;;9.05;;
38465;SDS011;24244;51.950;5.902;2023-05-07T09:14:45;9.98;;;7.20;;
38465;SDS011;24244;51.950;5.902;2023-05-07T09:17:13;13.00;;;9.00;;
38465;SDS011;24244;51.950;5.902;2023-05-07T09:19:42;12.27;;;8.38;;
38465;SDS011;24244;51.950;5.902;2023-05-07T09:22:10;13.13;;;7.60;;
38465;SDS011;24244;51.950;5.902;2023-05-07T09:24:38;12.77;;;7.55;;
38465;SDS011;24244;51.950;5.902;2023-05-07T09:27:05;11.35;;;7.95;;
38465;SDS011;24244;51.950;5.902;2023-05-07T09:29:32;10.18;;;7.15;;
38465;SDS011;24244;51.950;5.902;2023-05-07T09:32:02;10.85;;;8.30;;
38465;SDS011;24244;51.950;5.902;2023-05-07T09:34:30;9.68;;;6.95;;
38465;SDS011;24244;51.950;5.902;2023-05-07T09:36:58;11.52;;;8.00;;
38465;SDS011;24244;51.950;5.902;2023-05-07T09:39:25;13.50;;;9.15;;
38465;SDS011;24244;51.950;5.902;2023-05-07T09:41:53;11.27;;;7.57;;
38465;SDS011;24244;51.950;5.902;2023-05-07T09:44:20;12.02;;;7.90;;
38465;SDS011;24244;51.950;5.902;2023-05-07T09:46:51;11.30;;;7.53;;
38465;SDS011;24244;51.950;5.902;2023-05-07T09:49:21;12.85;;;8.80;;
38465;SDS011;24244;51.950;5.902;2023-05-07T09:51:49;10.82;;;7.38;;
38465;SDS011;24244;51.950;5.902;2023-05-07T09:54:18;11.10;;;8.10;;
38465;SDS011;24244;51.950;5.902;2023-05-07T09:56:45;10.65;;;8.75;;
38465;SDS011;24244;51.950;5.902;2023-05-07T09:59:16;10.98;;;8.25;;
38465;SDS011;24244;51.950;5.902;2023-05-07T10:01:43;12.38;;;8.60;;
38465;SDS011;24244;51.950;5.902;2023-05-07T10:04:10;11.25;;;7.50;;
38465;SDS011;24244;51.950;5.902;2023-05-07T10:06:38;11.18;;;8.70;;
38465;SDS011;24244;51.950;5.902;2023-05-07T10:09:05;9.73;;;7.05;;
38465;SDS011;24244;51.950;5.902;2023-05-07T10:11:33;12.60;;;8.38;;
38465;SDS011;24244;51.950;5.902;2023-05-07T10:14:01;11.10;;;8.25;;
38465;SDS011;24244;51.950;5.902;2023-05-07T10:16:32;12.20;;;8.55;;
38465;SDS011;24244;51.950;5.902;2023-05-07T10:19:02;12.30;;;8.07;;
38465;SDS011;24244;51.950;5.902;2023-05-07T10:21:30;12.00;;;7.78;;
38465;SDS011;24244;51.950;5.902;2023-05-07T10:24:03;11.52;;;8.13;;
38465;SDS011;24244;51.950;5.902;2023-05-07T10:26:36;9.07;;;6.22;;
38465;SDS011;24244;51.950;5.902;2023-05-07T10:29:05;10.63;;;8.43;;
38465;SDS011;24244;51.950;5.902;2023-05-07T10:31:47;9.75;;;6.65;;
38465;SDS011;24244;51.950;5.902;2023-05-07T10:34:23;8.52;;;6.03;;
38465;SDS011;24244;51.950;5.902;2023-05-07T10:36:52;11.00;;;7.65;;
38465;SDS011;24244;51.950;5.902;2023-05-07T10:39:22;11.40;;;7.93;;
38465;SDS011;24244;51.950;5.902;2023-05-07T10:41:50;12.18;;;6.78;;
38465;SDS011;24244;51.950;5.902;2023-05-07T10:44:26;10.10;;;7.72;;
38465;SDS011;24244;51.950;5.902;2023-05-07T10:47:08;10.50;;;7.28;;
38465;SDS011;24244;51.950;5.902;2023-05-07T10:49:36;11.40;;;7.55;;
38465;SDS011;24244;51.950;5.902;2023-05-07T10:52:10;9.90;;;6.85;;
38465;SDS011;24244;51.950;5.902;2023-05-07T10:54:39;8.93;;;6.97;;
38465;SDS011;24244;51.950;5.902;2023-05-07T11:00:05;10.80;;;7.35;;
38465;SDS011;24244;51.950;5.902;2023-05-07T11:03:09;9.05;;;6.72;;
38465;SDS011;24244;51.950;5.902;2023-05-07T11:05:38;10.20;;;7.15;;
38465;SDS011;24244;51.950;5.902;2023-05-07T11:08:05;10.35;;;7.53;;
38465;SDS011;24244;51.950;5.902;2023-05-07T11:10:49;10.30;;;7.00;;
38465;SDS011;24244;51.950;5.902;2023-05-07T11:13:19;9.75;;;6.88;;
38465;SDS011;24244;51.950;5.902;2023-05-07T11:16:16;6.70;;;4.60;;
38465;SDS011;24244;51.950;5.902;2023-05-07T11:18:48;9.50;;;6.47;;
38465;SDS011;24244;51.950;5.902;2023-05-07T11:21:32;8.43;;;6.43;;
38465;SDS011;24244;51.950;5.902;2023-05-07T11:24:00;7.32;;;5.50;;
38465;SDS011;24244;51.950;5.902;2023-05-07T11:26:29;9.68;;;6.70;;
38465;SDS011;24244;51.950;5.902;2023-05-07T11:28:57;8.95;;;5.93;;
38465;SDS011;24244;51.950;5.902;2023-05-07T11:31:26;8.45;;;5.72;;
38465;SDS011;24244;51.950;5.902;2023-05-07T11:33:56;9.13;;;6.55;;
38465;SDS011;24244;51.950;5.902;2023-05-07T11:36:24;9.20;;;6.78;;
38465;SDS011;24244;51.950;5.902;2023-05-07T11:38:51;9.38;;;6.47;;
38465;SDS011;24244;51.950;5.902;2023-05-07T11:41:18;8.00;;;6.25;;
38465;SDS011;24244;51.950;5.902;2023-05-07T11:43:53;8.45;;;6.63;;
38465;SDS011;24244;51.950;5.902;2023-05-07T11:46:23;8.70;;;6.65;;
38465;SDS011;24244;51.950;5.902;2023-05-07T11:48:50;9.85;;;7.10;;
38465;SDS011;24244;51.950;5.902;2023-05-07T11:51:22;8.77;;;5.97;;
38465;SDS011;24244;51.950;5.902;2023-05-07T11:53:50;8.63;;;6.78;;
38465;SDS011;24244;51.950;5.902;2023-05-07T11:56:17;8.80;;;6.75;;
38465;SDS011;24244;51.950;5.902;2023-05-07T11:58:45;7.78;;;6.32;;
38465;SDS011;24244;51.950;5.902;2023-05-07T12:01:14;9.30;;;5.85;;
38465;SDS011;24244;51.950;5.902;2023-05-07T12:03:43;8.95;;;6.15;;
38465;SDS011;24244;51.950;5.902;2023-05-07T12:06:14;6.82;;;5.20;;
38465;SDS011;24244;51.950;5.902;2023-05-07T12:08:44;9.07;;;5.55;;
38465;SDS011;24244;51.950;5.902;2023-05-07T12:13:42;8.50;;;5.95;;
38465;SDS011;24244;51.950;5.902;2023-05-07T12:16:09;7.88;;;5.80;;
38465;SDS011;24244;51.950;5.902;2023-05-07T12:18:36;8.23;;;5.82;;
38465;SDS011;24244;51.950;5.902;2023-05-07T12:21:04;9.38;;;6.22;;
38465;SDS011;24244;51.950;5.902;2023-05-07T12:23:33;8.02;;;5.80;;
38465;SDS011;24244;51.950;5.902;2023-05-07T12:26:01;7.88;;;5.78;;
38465;SDS011;24244;51.950;5.902;2023-05-07T12:28:35;8.07;;;6.00;;
38465;SDS011;24244;51.950;5.902;2023-05-07T12:31:03;9.45;;;6.25;;
38465;SDS011;24244;51.950;5.902;2023-05-07T12:33:33;7.68;;;5.90;;
38465;SDS011;24244;51.950;5.902;2023-05-07T12:36:02;8.60;;;6.00;;
38465;SDS011;24244;51.950;5.902;2023-05-07T12:38:36;7.45;;;5.82;;
38465;SDS011;24244;51.950;5.902;2023-05-07T12:41:05;7.55;;;5.65;;
38465;SDS011;24244;51.950;5.902;2023-05-07T12:43:33;8.45;;;5.68;;
38465;SDS011;24244;51.950;5.902;2023-05-07T12:46:01;8.45;;;6.18;;
38465;SDS011;24244;51.950;5.902;2023-05-07T12:48:30;8.23;;;5.82;;
38465;SDS011;24244;51.950;5.902;2023-05-07T12:50:59;6.43;;;3.90;;
38465;SDS011;24244;51.950;5.902;2023-05-07T12:53:27;7.57;;;5.57;;
38465;SDS011;24244;51.950;5.902;2023-05-07T12:55:55;8.57;;;6.28;;
38465;SDS011;24244;51.950;5.902;2023-05-07T12:58:25;7.85;;;5.20;;
38465;SDS011;24244;51.950;5.902;2023-05-07T13:00:54;7.68;;;5.47;;
38465;SDS011;24244;51.950;5.902;2023-05-07T13:03:27;8.02;;;5.45;;
38465;SDS011;24244;51.950;5.902;2023-05-07T13:05:55;6.85;;;4.90;;
38465;SDS011;24244;51.950;5.902;2023-05-07T13:08:28;7.20;;;5.18;;
38465;SDS011;24244;51.950;5.902;2023-05-07T13:10:56;7.25;;;4.63;;
38465;SDS011;24244;51.950;5.902;2023-05-07T13:13:25;8.10;;;5.43;;
38465;SDS011;24244;51.950;5.902;2023-05-07T13:18:21;8.25;;;5.22;;
38465;SDS011;24244;51.950;5.902;2023-05-07T13:20:48;6.97;;;4.35;;
38465;SDS011;24244;51.950;5.902;2023-05-07T13:23:16;6.30;;;4.75;;
38465;SDS011;24244;51.950;5.902;2023-05-07T13:25:43;7.43;;;5.53;;
38465;SDS011;24244;51.950;5.902;2023-05-07T13:28:10;8.30;;;4.90;;
38465;SDS011;24244;51.950;5.902;2023-05-07T13:30:38;7.13;;;4.68;;
38465;SDS011;24244;51.950;5.902;2023-05-07T13:33:06;6.80;;;5.30;;
38465;SDS011;24244;51.950;5.902;2023-05-07T13:35:34;6.38;;;4.95;;
38465;SDS011;24244;51.950;5.902;2023-05-07T13:38:01;7.00;;;5.05;;
38465;SDS011;24244;51.950;5.902;2023-05-07T13:40:28;7.18;;;4.78;;
38465;SDS011;24244;51.950;5.902;2023-05-07T13:42:56;6.85;;;5.38;;
38465;SDS011;24244;51.950;5.902;2023-05-07T13:45:24;6.20;;;5.03;;
38465;SDS011;24244;51.950;5.902;2023-05-07T13:47:53;6.57;;;4.00;;
38465;SDS011;24244;51.950;5.902;2023-05-07T13:50:20;5.70;;;4.60;;
38465;SDS011;24244;51.950;5.902;2023-05-07T13:52:47;9.00;;;5.05;;
38465;SDS011;24244;51.950;5.902;2023-05-07T13:55:17;6.72;;;5.00;;
38465;SDS011;24244;51.950;5.902;2023-05-07T13:57:44;6.63;;;3.88;;
38465;SDS011;24244;51.950;5.902;2023-05-07T14:00:11;6.47;;;4.88;;
38465;SDS011;24244;51.950;5.902;2023-05-07T14:02:39;6.28;;;4.78;;
38465;SDS011;24244;51.950;5.902;2023-05-07T14:05:08;7.60;;;4.10;;
38465;SDS011;24244;51.950;5.902;2023-05-07T14:07:36;7.15;;;4.70;;
38465;SDS011;24244;51.950;5.902;2023-05-07T14:10:03;7.38;;;4.20;;
38465;SDS011;24244;51.950;5.902;2023-05-07T14:12:33;5.65;;;3.63;;
38465;SDS011;24244;51.950;5.902;2023-05-07T14:15:00;8.13;;;4.55;;
38465;SDS011;24244;51.950;5.902;2023-05-07T14:17:27;6.80;;;4.78;;
38465;SDS011;24244;51.950;5.902;2023-05-07T14:19:54;7.18;;;4.65;;
38465;SDS011;24244;51.950;5.902;2023-05-07T14:22:22;7.65;;;4.30;;
38465;SDS011;24244;51.950;5.902;2023-05-07T14:24:49;6.18;;;4.38;;
38465;SDS011;24244;51.950;5.902;2023-05-07T14:27:31;5.80;;;4.35;;
38465;SDS011;24244;51.950;5.902;2023-05-07T14:29:58;7.22;;;4.38;;
38465;SDS011;24244;51.950;5.902;2023-05-07T14:32:24;6.55;;;4.47;;
38465;SDS011;24244;51.950;5.902;2023-05-07T14:34:52;6.80;;;4.60;;
38465;SDS011;24244;51.950;5.902;2023-05-07T14:37:18;6.50;;;5.07;;
38465;SDS011;24244;51.950;5.902;2023-05-07T14:39:47;7.82;;;4.75;;
38465;SDS011;24244;51.950;5.902;2023-05-07T14:42:16;6.85;;;4.72;;
38465;SDS011;24244;51.950;5.902;2023-05-07T14:44:43;6.63;;;5.18;;
38465;SDS011;24244;51.950;5.902;2023-05-07T14:47:12;6.35;;;4.72;;
38465;SDS011;24244;51.950;5.902;2023-05-07T14:49:38;6.93;;;4.88;;
38465;SDS011;24244;51.950;5.902;2023-05-07T14:52:07;5.68;;;4.60;;
38465;SDS011;24244;51.950;5.902;2023-05-07T14:54:36;5.45;;;4.05;;
38465;SDS011;24244;51.950;5.902;2023-05-07T14:57:07;5.25;;;3.65;;
38465;SDS011;24244;51.950;5.902;2023-05-07T14:59:36;5.18;;;3.53;;